createdAt,value
2018-01-16T00:01:54.166Z,35.80
2018-01-16T00:04:21.956Z,37.07
2018-01-16T00:06:49.762Z,35.57
2018-01-16T00:09:18.363Z,33.10
2018-01-16T00:11:46.155Z,35.70
2018-01-16T00:14:13.947Z,33.10
2018-01-16T00:16:41.743Z,33.30
2018-01-16T00:19:10.254Z,34.83
2018-01-16T00:21:38.839Z,34.27
2018-01-16T00:24:06.672Z,32.63
2018-01-16T00:26:34.403Z,33.57
2018-01-16T00:29:02.190Z,32.93
2018-01-16T00:31:30.016Z,34.13
2018-01-16T00:34:00.110Z,33.00
2018-01-16T00:36:27.903Z,33.90
2018-01-16T00:38:55.694Z,32.40
2018-01-16T00:41:23.448Z,32.50
2018-01-16T00:43:51.184Z,33.83
2018-01-16T00:46:18.993Z,32.93
2018-01-16T00:48:46.837Z,33.47
2018-01-16T00:51:14.647Z,34.97
2018-01-16T00:53:42.811Z,31.87
2018-01-16T00:56:10.621Z,34.23
2018-01-16T00:58:38.350Z,33.07
2018-01-16T01:01:06.882Z,32.87
2018-01-16T01:03:34.681Z,31.53
2018-01-16T01:06:03.274Z,33.50
2018-01-16T01:08:31.069Z,33.63
2018-01-16T01:10:58.925Z,31.87
2018-01-16T01:13:26.689Z,32.90
2018-01-16T01:15:54.462Z,31.40
2018-01-16T01:18:22.226Z,32.60
2018-01-16T01:20:50.026Z,34.40
2018-01-16T01:23:17.772Z,31.10
2018-01-16T01:25:45.586Z,31.73
2018-01-16T01:28:13.361Z,30.00
2018-01-16T01:30:41.164Z,31.90
2018-01-16T01:33:08.976Z,31.90
2018-01-16T01:35:36.748Z,30.90
2018-01-16T01:38:04.496Z,34.10
2018-01-16T01:40:32.232Z,31.80
2018-01-16T01:43:00.029Z,33.43
2018-01-16T01:45:27.808Z,29.83
2018-01-16T01:47:55.635Z,33.80
2018-01-16T01:50:23.422Z,32.03
2018-01-16T01:52:51.414Z,31.13
2018-01-16T01:55:19.249Z,30.70
2018-01-16T01:57:47.054Z,33.00
2018-01-16T02:00:14.846Z,32.60
2018-01-16T02:02:43.407Z,31.53
2018-01-16T02:05:11.196Z,33.07
2018-01-16T02:07:38.953Z,33.93
2018-01-16T02:10:06.773Z,32.10
2018-01-16T02:12:34.595Z,35.23
2018-01-16T02:15:03.168Z,30.83
2018-01-16T02:17:30.991Z,32.00
2018-01-16T02:19:58.718Z,33.33
2018-01-16T02:22:26.501Z,33.67
2018-01-16T02:24:54.423Z,34.67
2018-01-16T02:27:22.184Z,34.53
2018-01-16T02:29:49.981Z,35.13
2018-01-16T02:32:17.828Z,33.80
2018-01-16T02:34:45.586Z,32.67
2018-01-16T02:37:13.381Z,32.67
2018-01-16T02:39:41.219Z,32.73
2018-01-16T02:42:09.007Z,34.00
2018-01-16T02:44:36.805Z,33.87
2018-01-16T02:47:04.671Z,35.53
2018-01-16T02:49:32.484Z,33.63
2018-01-16T02:52:00.285Z,35.13
2018-01-16T02:54:28.156Z,34.17
2018-01-16T02:56:56.648Z,36.00
2018-01-16T02:59:24.432Z,35.23
2018-01-16T03:01:52.150Z,38.13
2018-01-16T03:04:19.980Z,37.50
2018-01-16T03:06:47.736Z,34.60
2018-01-16T03:09:15.520Z,35.33
2018-01-16T03:11:43.327Z,34.70
2018-01-16T03:14:11.047Z,37.53
2018-01-16T03:16:38.866Z,35.17
2018-01-16T03:19:06.668Z,35.03
2018-01-16T03:21:34.405Z,32.10
2018-01-16T03:24:02.204Z,36.43
2018-01-16T03:26:29.937Z,34.27
2018-01-16T03:28:57.676Z,35.23
2018-01-16T03:31:25.434Z,39.93
2018-01-16T03:33:53.217Z,39.20
2018-01-16T03:36:21.004Z,38.90
2018-01-16T03:38:48.857Z,37.90
2018-01-16T03:41:16.592Z,42.80
2018-01-16T03:43:44.336Z,40.30
2018-01-16T03:46:12.115Z,43.20
2018-01-16T03:48:39.918Z,40.57
2018-01-16T03:51:07.643Z,40.90
2018-01-16T03:53:35.689Z,37.73
2018-01-16T03:56:03.497Z,39.27
2018-01-16T03:58:31.308Z,40.00
2018-01-16T04:00:59.127Z,45.20
2018-01-16T04:03:26.948Z,38.53
2018-01-16T04:05:54.754Z,42.07
2018-01-16T04:08:22.504Z,41.13
2018-01-16T04:10:50.222Z,42.63
2018-01-16T04:13:17.967Z,42.43
2018-01-16T04:15:45.801Z,45.23
2018-01-16T04:18:13.594Z,40.60
2018-01-16T04:20:41.383Z,39.87
2018-01-16T04:23:09.178Z,42.47
2018-01-16T04:25:37.051Z,36.83
2018-01-16T04:28:05.583Z,35.80
2018-01-16T04:30:33.381Z,40.10
2018-01-16T04:33:01.160Z,40.13
2018-01-16T04:35:28.921Z,40.80
2018-01-16T04:37:56.716Z,42.67
2018-01-16T04:40:24.526Z,38.60
2018-01-16T04:42:52.301Z,41.40
2018-01-16T04:45:20.124Z,41.30
2018-01-16T04:47:48.646Z,39.63
2018-01-16T04:50:16.373Z,40.50
2018-01-16T04:52:44.125Z,43.83
2018-01-16T04:55:11.933Z,39.63
2018-01-16T04:57:39.659Z,42.87
2018-01-16T05:00:07.473Z,37.60
2018-01-16T05:02:35.232Z,40.67
2018-01-16T05:05:02.985Z,43.47
2018-01-16T05:07:30.784Z,38.70
2018-01-16T05:09:58.527Z,39.50
2018-01-16T05:12:26.296Z,39.90
2018-01-16T05:14:54.040Z,43.43
2018-01-16T05:17:21.818Z,38.10
2018-01-16T05:19:49.606Z,41.00
2018-01-16T05:22:17.348Z,39.47
2018-01-16T05:24:45.089Z,38.60
2018-01-16T05:27:12.909Z,40.80
2018-01-16T05:29:40.673Z,43.67
2018-01-16T05:32:08.437Z,41.60
2018-01-16T05:34:36.234Z,38.33
2018-01-16T05:37:04.058Z,40.73
2018-01-16T05:39:32.192Z,42.23
2018-01-16T05:44:35.288Z,41.50
2018-01-16T05:47:03.862Z,43.23
2018-01-16T05:49:31.749Z,40.13
2018-01-16T05:51:59.659Z,42.70
2018-01-16T05:54:28.150Z,38.90
2018-01-16T05:56:55.988Z,44.40
2018-01-16T05:59:23.799Z,41.00
2018-01-16T06:01:51.571Z,39.20
2018-01-16T06:04:19.314Z,40.20
2018-01-16T06:06:47.109Z,43.27
2018-01-16T06:09:14.851Z,44.27
2018-01-16T06:11:42.618Z,45.43
2018-01-16T06:14:10.371Z,46.43
2018-01-16T06:16:38.198Z,41.53
2018-01-16T06:19:06.303Z,42.80
2018-01-16T06:21:34.882Z,43.20
2018-01-16T06:24:02.718Z,40.00
2018-01-16T06:26:30.654Z,42.67
2018-01-16T06:28:59.809Z,42.70
2018-01-16T06:31:29.265Z,42.70
2018-01-16T06:33:59.652Z,44.63
2018-01-16T06:36:27.393Z,42.50
2018-01-16T06:38:56.892Z,41.30
2018-01-16T06:41:24.796Z,42.97
2018-01-16T06:43:53.406Z,38.57
2018-01-16T06:46:21.131Z,40.13
2018-01-16T06:48:48.882Z,36.73
2018-01-16T06:51:16.690Z,41.43
2018-01-16T06:53:44.540Z,39.80
2018-01-16T06:56:12.291Z,39.23
2018-01-16T06:58:40.036Z,35.27
2018-01-16T07:01:07.770Z,36.63
2018-01-16T07:03:35.590Z,36.20
2018-01-16T07:06:04.363Z,37.20
2018-01-16T07:08:32.120Z,35.40
2018-01-16T07:10:59.961Z,37.53
2018-01-16T07:13:27.790Z,36.80
2018-01-16T07:15:55.630Z,35.30
2018-01-16T07:18:23.467Z,34.97
2018-01-16T07:20:52.041Z,36.50
2018-01-16T07:23:19.868Z,35.70
2018-01-16T07:25:47.610Z,35.93
2018-01-16T07:28:15.441Z,34.63
2018-01-16T07:30:43.969Z,36.00
2018-01-16T07:33:11.721Z,35.53
2018-01-16T07:35:39.513Z,37.40
2018-01-16T07:38:07.320Z,38.47
2018-01-16T07:40:35.194Z,35.93
2018-01-16T07:43:03.796Z,37.17
2018-01-16T07:45:31.604Z,31.07
2018-01-16T07:47:59.401Z,35.00
2018-01-16T07:50:27.220Z,35.70
2018-01-16T07:52:55.042Z,32.60
2018-01-16T07:55:22.853Z,35.67
2018-01-16T07:57:50.938Z,35.53
2018-01-16T08:00:18.799Z,36.40
2018-01-16T08:02:46.535Z,35.57
2018-01-16T08:05:14.315Z,37.67
2018-01-16T08:07:42.128Z,36.47
2018-01-16T08:10:09.860Z,33.10
2018-01-16T08:12:37.633Z,35.57
2018-01-16T08:15:05.435Z,34.67
2018-01-16T08:17:33.181Z,34.03
2018-01-16T08:20:00.986Z,37.20
2018-01-16T08:22:29.860Z,34.73
2018-01-16T08:24:57.741Z,32.13
2018-01-16T08:27:25.524Z,34.20
2018-01-16T08:29:53.274Z,35.60
2018-01-16T08:32:21.040Z,33.27
2018-01-16T08:34:48.792Z,31.97
2018-01-16T08:37:16.639Z,32.13
2018-01-16T08:39:44.384Z,33.87
2018-01-16T08:42:12.147Z,36.00
2018-01-16T08:44:39.895Z,35.67
2018-01-16T08:47:08.506Z,34.77
2018-01-16T08:49:36.283Z,34.50
2018-01-16T08:52:04.120Z,33.37
2018-01-16T08:54:32.648Z,33.03
2018-01-16T08:57:00.381Z,31.93
2018-01-16T08:59:28.200Z,31.60
2018-01-16T09:01:56.027Z,34.30
2018-01-16T09:04:23.764Z,33.63
2018-01-16T09:06:51.592Z,34.17
2018-01-16T09:09:19.360Z,32.83
2018-01-16T09:11:47.187Z,32.60
2018-01-16T09:14:15.798Z,32.97
2018-01-16T09:16:43.626Z,32.20
2018-01-16T09:19:12.175Z,32.60
2018-01-16T09:21:39.950Z,33.07
2018-01-16T09:24:08.461Z,34.47
2018-01-16T09:26:37.074Z,31.60
2018-01-16T09:29:04.868Z,37.80
2018-01-16T09:31:32.668Z,31.90
2018-01-16T09:34:00.405Z,33.67
2018-01-16T09:36:28.225Z,35.30
2018-01-16T09:38:56.800Z,34.57
2018-01-16T09:41:24.686Z,33.43
2018-01-16T09:43:52.521Z,35.23
2018-01-16T09:46:20.390Z,37.13
2018-01-16T09:48:48.144Z,35.63
2018-01-16T09:51:15.971Z,36.80
2018-01-16T09:53:43.767Z,33.80
2018-01-16T09:56:11.518Z,37.13
2018-01-16T09:58:39.291Z,39.23
2018-01-16T10:01:07.041Z,38.07
2018-01-16T10:03:34.776Z,41.60
2018-01-16T10:06:02.534Z,40.73
2018-01-16T10:08:30.296Z,40.77
2018-01-16T10:10:58.038Z,40.60
2018-01-16T10:13:25.777Z,37.40
2018-01-16T10:15:53.597Z,38.10
2018-01-16T10:18:21.430Z,42.90
2018-01-16T10:20:49.282Z,45.90
2018-01-16T10:23:17.029Z,38.60
2018-01-16T10:25:45.552Z,39.77
2018-01-16T10:28:13.328Z,43.43
2018-01-16T10:30:41.102Z,43.10
2018-01-16T10:33:08.856Z,46.00
2018-01-16T10:35:36.669Z,45.00
2018-01-16T10:38:04.454Z,43.40
2018-01-16T10:40:32.221Z,46.40
2018-01-16T10:42:59.989Z,39.30
2018-01-16T10:45:27.799Z,42.50
2018-01-16T10:47:55.540Z,42.13
2018-01-16T10:50:23.349Z,48.47
2018-01-16T10:52:51.187Z,44.90
2018-01-16T10:55:19.011Z,36.87
2018-01-16T10:57:46.745Z,41.20
2018-01-16T11:00:14.556Z,40.07
2018-01-16T11:02:42.339Z,37.80
2018-01-16T11:05:10.067Z,37.27
2018-01-16T11:07:38.623Z,43.87
2018-01-16T11:10:06.346Z,45.53
2018-01-16T11:12:34.159Z,45.60
2018-01-16T11:15:01.998Z,42.80
2018-01-16T11:17:29.820Z,42.33
2018-01-16T11:19:57.594Z,40.13
2018-01-16T11:22:25.397Z,42.00
2018-01-16T11:24:53.200Z,39.17
2018-01-16T11:27:20.960Z,43.77
2018-01-16T11:29:48.738Z,43.70
2018-01-16T11:32:16.477Z,45.03
2018-01-16T11:34:44.211Z,43.07
2018-01-16T11:37:12.030Z,39.97
2018-01-16T11:39:39.852Z,43.70
2018-01-16T11:42:07.600Z,42.17
2018-01-16T11:44:35.382Z,42.80
2018-01-16T11:47:03.187Z,43.27
2018-01-16T11:49:31.010Z,39.60
2018-01-16T11:51:58.810Z,42.30
2018-01-16T11:54:26.573Z,41.53
2018-01-16T11:56:54.332Z,39.60
2018-01-16T11:59:22.140Z,41.20
2018-01-16T12:01:49.970Z,42.13
2018-01-16T12:04:17.708Z,40.13
2018-01-16T12:06:45.552Z,41.50
2018-01-16T12:09:13.332Z,36.30
2018-01-16T12:11:41.138Z,37.27
2018-01-16T12:14:08.930Z,39.80
2018-01-16T12:16:36.740Z,39.33
2018-01-16T12:19:05.243Z,40.60
2018-01-16T12:21:33.083Z,41.07
2018-01-16T12:24:00.814Z,38.93
2018-01-16T12:26:28.568Z,41.43
2018-01-16T12:28:56.406Z,41.97
2018-01-16T12:31:24.230Z,43.80
2018-01-16T12:33:58.527Z,41.00
2018-01-16T12:36:26.274Z,43.47
2018-01-16T12:38:54.032Z,44.27
2018-01-16T12:41:21.828Z,44.27
2018-01-16T12:43:49.577Z,41.50
2018-01-16T12:46:17.335Z,47.57
2018-01-16T12:48:45.202Z,42.37
2018-01-16T12:51:12.990Z,43.53
2018-01-16T12:53:40.793Z,46.70
2018-01-16T12:56:08.595Z,42.17
2018-01-16T12:58:36.360Z,39.40
2018-01-16T13:01:04.441Z,41.93
2018-01-16T13:03:32.256Z,38.53
2018-01-16T13:06:00.025Z,40.83
2018-01-16T13:08:27.820Z,39.13
2018-01-16T13:10:56.506Z,37.57
2018-01-16T13:13:25.175Z,36.67
2018-01-16T13:15:53.033Z,38.87
2018-01-16T13:18:20.829Z,39.13
2018-01-16T13:20:48.619Z,36.10
2018-01-16T13:23:16.471Z,42.20
2018-01-16T13:25:45.208Z,40.13
2018-01-16T13:28:16.167Z,41.40
2018-01-16T13:30:43.990Z,37.23
2018-01-16T13:33:11.786Z,42.70
2018-01-16T13:35:39.663Z,38.70
2018-01-16T13:38:07.522Z,41.40
2018-01-16T13:40:35.310Z,42.60
2018-01-16T13:43:03.078Z,46.00
2018-01-16T13:45:31.615Z,41.47
2018-01-16T13:47:59.744Z,41.70
2018-01-16T13:50:27.969Z,39.80
2018-01-16T13:52:56.727Z,39.40
2018-01-16T13:55:25.298Z,39.83
2018-01-16T13:57:53.309Z,37.07
2018-01-16T14:00:21.094Z,34.33
2018-01-16T14:02:48.857Z,40.37
2018-01-16T14:05:16.688Z,41.33
2018-01-16T14:07:44.591Z,37.93
2018-01-16T14:10:12.387Z,40.83
2018-01-16T14:12:40.223Z,37.37
2018-01-16T14:15:08.245Z,39.60
2018-01-16T14:17:36.088Z,39.80
2018-01-16T14:20:03.885Z,38.97
2018-01-16T14:22:31.738Z,40.20
2018-01-16T14:24:59.550Z,39.60
2018-01-16T14:27:28.096Z,42.50
2018-01-16T14:29:55.935Z,41.80
2018-01-16T14:32:23.767Z,37.40
2018-01-16T14:34:52.320Z,40.73
2018-01-16T14:37:20.127Z,39.60
2018-01-16T14:39:48.699Z,38.23
2018-01-16T14:42:16.521Z,41.60
2018-01-16T14:44:44.364Z,39.67
2018-01-16T14:47:12.250Z,43.57
2018-01-16T14:49:40.127Z,40.13
2018-01-16T14:52:08.003Z,38.97
2018-01-16T14:54:35.754Z,40.07
2018-01-16T14:57:03.576Z,43.13
2018-01-16T14:59:32.136Z,39.40
2018-01-16T15:01:59.924Z,40.87
2018-01-16T15:04:27.797Z,43.07
2018-01-16T15:06:56.353Z,39.80
2018-01-16T15:09:24.125Z,36.67
2018-01-16T15:11:51.922Z,43.37
2018-01-16T15:14:19.691Z,40.80
2018-01-16T15:16:47.533Z,40.07
2018-01-16T15:19:15.332Z,44.57
2018-01-16T15:21:43.897Z,40.50
2018-01-16T15:24:11.683Z,38.63
2018-01-16T15:26:39.512Z,34.80
2018-01-16T15:29:07.289Z,39.27
2018-01-16T15:31:35.099Z,41.50
2018-01-16T15:34:03.001Z,43.70
2018-01-16T15:36:30.797Z,40.50
2018-01-16T15:38:58.616Z,42.37
2018-01-16T15:41:26.407Z,40.00
2018-01-16T15:43:54.169Z,40.30
2018-01-16T15:46:21.949Z,43.83
2018-01-16T15:48:49.710Z,42.03
2018-01-16T15:51:17.534Z,39.60
2018-01-16T15:53:46.184Z,39.00
2018-01-16T15:56:15.575Z,38.30
2018-01-16T15:58:43.445Z,38.90
2018-01-16T16:01:11.227Z,38.70
2018-01-16T16:03:39.437Z,36.20
2018-01-16T16:06:08.003Z,39.47
2018-01-16T16:08:35.810Z,35.37
2018-01-16T16:11:03.574Z,39.07
2018-01-16T16:13:31.458Z,37.00
2018-01-16T16:15:59.373Z,37.67
2018-01-16T16:21:48.904Z,35.03
2018-01-16T16:24:16.764Z,34.90
2018-01-16T16:26:44.630Z,35.90
2018-01-16T16:29:12.494Z,35.60
2018-01-16T16:31:40.883Z,35.67
2018-01-16T16:34:08.854Z,40.13
2018-01-16T16:36:37.794Z,40.80
2018-01-16T16:39:06.719Z,42.70
2018-01-16T16:41:35.424Z,39.27
2018-01-16T16:44:03.905Z,41.43
2018-01-16T16:46:32.895Z,41.10
2018-01-16T16:49:01.058Z,38.03
2018-01-16T16:51:29.447Z,39.43
2018-01-16T16:53:57.520Z,37.93
2018-01-16T16:56:25.594Z,41.87
2018-01-16T16:58:53.952Z,38.10
2018-01-16T17:01:22.861Z,37.53
2018-01-16T17:03:50.699Z,37.37
2018-01-16T17:06:18.905Z,35.67
2018-01-16T17:08:47.717Z,38.53
2018-01-16T17:11:16.476Z,38.20
2018-01-16T17:13:44.334Z,37.17
2018-01-16T17:16:12.197Z,43.17
2018-01-16T17:18:40.082Z,41.83
2018-01-16T17:21:08.040Z,40.47
2018-01-16T17:23:35.899Z,41.83
2018-01-16T17:26:03.878Z,41.37
2018-01-16T17:28:34.052Z,40.43
2018-01-16T17:31:02.010Z,41.67
2018-01-16T17:33:29.927Z,39.23
2018-01-16T17:35:58.009Z,41.50
2018-01-16T17:38:26.186Z,44.58
2018-01-16T17:40:54.877Z,41.73
2018-01-16T17:43:23.757Z,39.93
2018-01-16T17:45:52.137Z,37.80
2018-01-16T17:48:19.992Z,39.90
2018-01-16T17:50:47.969Z,41.73
2018-01-16T17:53:15.835Z,42.07
2018-01-16T17:55:43.807Z,42.87
2018-01-16T17:58:11.665Z,42.00
2018-01-16T18:00:39.639Z,41.00
2018-01-16T18:03:07.465Z,43.97
2018-01-16T18:05:35.366Z,40.60
2018-01-16T18:08:05.895Z,57.33
2018-01-16T18:10:36.187Z,50.47
2018-01-16T18:13:04.393Z,48.57
2018-01-16T18:15:32.266Z,55.07
2018-01-16T18:18:03.127Z,54.60
2018-01-16T18:20:32.283Z,48.47
2018-01-16T18:23:08.319Z,49.50
2018-01-16T18:25:36.353Z,47.77
2018-01-16T18:28:06.468Z,45.37
2018-01-16T18:30:35.235Z,45.53
2018-01-16T18:33:03.825Z,43.43
2018-01-16T18:35:31.887Z,41.57
2018-01-16T18:38:00.290Z,45.50
2018-01-16T18:40:29.050Z,41.73
2018-01-16T18:42:58.662Z,44.23
2018-01-16T18:45:28.374Z,42.70
2018-01-16T18:47:57.359Z,43.60
2018-01-16T18:50:26.146Z,43.40
2018-01-16T18:52:55.036Z,48.10
2018-01-16T18:55:23.216Z,49.00
2018-01-16T18:57:51.138Z,43.90
2018-01-16T19:00:19.261Z,42.60
2018-01-16T19:02:47.120Z,41.07
2018-01-16T19:05:16.067Z,41.83
2018-01-16T19:07:43.977Z,41.30
2018-01-16T19:10:11.846Z,42.03
2018-01-16T19:12:40.599Z,39.57
2018-01-16T19:15:09.117Z,42.90
2018-01-16T19:17:38.418Z,41.67
2018-01-16T19:20:06.388Z,41.30
2018-01-16T19:22:35.066Z,42.60
2018-01-16T19:25:02.941Z,40.20
2018-01-16T19:27:30.800Z,40.80
2018-01-16T19:29:58.779Z,42.23
2018-01-16T19:32:26.644Z,41.40
2018-01-16T19:34:55.333Z,39.10
2018-01-16T19:37:23.404Z,44.13
2018-01-16T19:39:53.100Z,41.70
2018-01-16T19:42:22.146Z,38.60
2018-01-16T19:44:52.210Z,43.07
2018-01-16T19:47:20.711Z,42.10
2018-01-16T19:49:50.682Z,42.30
2018-01-16T19:52:18.680Z,43.43
2018-01-16T19:54:47.811Z,43.50
2018-01-16T19:57:17.601Z,40.93
2018-01-16T19:59:48.478Z,46.43
2018-01-16T20:02:18.287Z,47.10
2018-01-16T20:04:48.575Z,43.50
2018-01-16T20:07:17.701Z,43.47
2018-01-16T20:09:48.736Z,43.13
2018-01-16T20:12:18.556Z,43.13
2018-01-16T20:14:48.782Z,42.50
2018-01-16T20:17:18.620Z,44.40
2018-01-16T20:19:47.842Z,43.83
2018-01-16T20:22:18.237Z,41.00
2018-01-16T20:24:48.846Z,41.57
2018-01-16T20:27:17.799Z,39.17
2018-01-16T20:29:48.370Z,45.17
2018-01-16T20:32:17.741Z,42.27
2018-01-16T20:34:46.296Z,39.83
2018-01-16T20:37:14.405Z,39.80
2018-01-16T20:39:43.768Z,36.00
2018-01-16T20:42:12.471Z,36.10
2018-01-16T20:44:41.363Z,37.17
2018-01-16T20:47:09.326Z,35.70
2018-01-16T20:49:37.300Z,36.03
2018-01-16T20:52:05.475Z,37.23
2018-01-16T20:54:34.568Z,38.53
2018-01-16T20:57:02.404Z,35.53
2018-01-16T20:59:30.296Z,38.67
2018-01-16T21:01:58.299Z,38.63
2018-01-16T21:04:27.152Z,37.97
2018-01-16T21:06:55.020Z,38.00
2018-01-16T21:09:22.886Z,40.50
2018-01-16T21:11:50.858Z,40.73
2018-01-16T21:14:19.031Z,39.83
2018-01-16T21:16:46.897Z,39.80
2018-01-16T21:19:14.771Z,41.00
2018-01-16T21:21:42.635Z,37.10
2018-01-16T21:24:10.701Z,37.67
2018-01-16T21:26:38.564Z,38.33
2018-01-16T21:29:06.442Z,40.53
2018-01-16T21:31:34.303Z,41.33
2018-01-16T21:34:02.173Z,39.40
2018-01-16T21:36:30.041Z,41.57
2018-01-16T21:38:57.900Z,36.60
2018-01-16T21:41:25.767Z,38.03
2018-01-16T21:43:53.638Z,37.97
2018-01-16T21:46:21.494Z,38.47
2018-01-16T21:48:49.473Z,39.50
2018-01-16T21:51:17.334Z,38.77
2018-01-16T21:53:45.199Z,36.77
2018-01-16T21:56:13.176Z,37.40
2018-01-16T21:58:41.144Z,41.20
2018-01-16T22:01:09.003Z,38.40
2018-01-16T22:03:36.876Z,37.90
2018-01-16T22:06:04.735Z,37.13
2018-01-16T22:08:32.601Z,35.97
2018-01-16T22:11:00.470Z,37.90
2018-01-16T22:13:28.335Z,38.73
2018-01-16T22:15:56.416Z,37.93
2018-01-16T22:18:24.384Z,40.00
2018-01-16T22:20:52.352Z,37.63
2018-01-16T22:23:20.212Z,38.23
2018-01-16T22:25:48.085Z,37.87
2018-01-16T22:28:15.944Z,35.50
2018-01-16T22:30:44.015Z,35.20
2018-01-16T22:33:12.699Z,34.40
2018-01-16T22:35:41.604Z,44.87
2018-01-16T22:38:09.572Z,34.13
2018-01-16T22:40:37.432Z,34.07
2018-01-16T22:43:05.294Z,33.73
2018-01-16T22:45:33.371Z,35.23
2018-01-16T22:48:01.340Z,33.90
2018-01-16T22:50:29.199Z,35.60
2018-01-16T22:52:57.069Z,36.07
2018-01-16T22:55:25.034Z,31.20
2018-01-16T22:57:52.900Z,34.63
2018-01-16T23:00:20.876Z,35.80
2018-01-16T23:02:48.840Z,36.70
2018-01-16T23:05:16.814Z,35.20
2018-01-16T23:07:44.782Z,35.97
2018-01-16T23:10:12.745Z,34.20
2018-01-16T23:12:40.721Z,35.60
2018-01-16T23:15:17.746Z,37.13
2018-01-16T23:17:45.535Z,36.00
2018-01-16T23:20:13.332Z,35.30
2018-01-16T23:22:41.196Z,34.90
2018-01-16T23:25:08.957Z,36.73
2018-01-16T23:27:36.697Z,35.03
2018-01-16T23:30:04.484Z,34.17
2018-01-16T23:32:32.305Z,34.77
2018-01-16T23:35:00.055Z,35.53
2018-01-16T23:37:28.615Z,36.27
2018-01-16T23:39:56.429Z,35.00
2018-01-16T23:42:24.155Z,35.93
2018-01-16T23:44:52.277Z,33.17
2018-01-16T23:47:20.096Z,37.83
2018-01-16T23:49:47.833Z,35.70
2018-01-16T23:52:15.625Z,36.17
2018-01-16T23:54:43.363Z,36.50
2018-01-16T23:57:11.101Z,34.53
2018-01-16T23:59:38.872Z,35.67
